createdAt,value
2023-11-05T00:00:10.748Z,8.32
2023-11-05T00:00:41.668Z,8.32
2023-11-05T00:01:12.620Z,8.34
2023-11-05T00:01:43.532Z,8.34
2023-11-05T00:02:14.417Z,8.32
2023-11-05T00:02:45.385Z,8.34
2023-11-05T00:03:16.396Z,8.34
2023-11-05T00:03:46.877Z,8.32
2023-11-05T00:04:17.811Z,8.34
2023-11-05T00:04:48.772Z,8.32
2023-11-05T00:05:19.715Z,8.34
2023-11-05T00:05:50.638Z,8.32
2023-11-05T00:06:21.552Z,8.34
2023-11-05T00:06:52.479Z,8.32
2023-11-05T00:07:23.413Z,8.31
2023-11-05T00:07:54.325Z,8.34
2023-11-05T00:08:25.231Z,8.32
2023-11-05T00:08:56.117Z,8.32
2023-11-05T00:09:27.024Z,8.32
2023-11-05T00:09:57.945Z,8.32
2023-11-05T00:10:28.967Z,8.31
2023-11-05T00:10:59.427Z,8.31
2023-11-05T00:11:30.387Z,8.31
2023-11-05T00:12:01.340Z,8.29
2023-11-05T00:12:32.225Z,8.28
2023-11-05T00:13:03.164Z,8.29
2023-11-05T00:13:34.180Z,8.28
2023-11-05T00:14:05.073Z,8.27
2023-11-05T00:14:36.058Z,8.27
2023-11-05T00:15:06.980Z,8.28
2023-11-05T00:15:37.910Z,8.27
2023-11-05T00:16:08.839Z,8.28
2023-11-05T00:16:39.781Z,8.25
2023-11-05T00:17:10.688Z,8.27
2023-11-05T00:17:41.684Z,8.25
2023-11-05T00:18:12.602Z,8.25
2023-11-05T00:18:43.515Z,8.25
2023-11-05T00:19:14.516Z,8.25
2023-11-05T00:19:44.991Z,8.24
2023-11-05T00:20:15.918Z,8.25
2023-11-05T00:20:46.826Z,8.24
2023-11-05T00:21:17.760Z,8.24
2023-11-05T00:21:48.648Z,8.22
2023-11-05T00:22:19.611Z,8.21
2023-11-05T00:22:50.518Z,8.21
2023-11-05T00:23:21.440Z,8.21
2023-11-05T00:23:52.380Z,8.20
2023-11-05T00:24:23.306Z,8.20
2023-11-05T00:24:54.224Z,8.18
2023-11-05T00:25:25.136Z,8.18
2023-11-05T00:25:56.047Z,8.17
2023-11-05T00:26:26.966Z,8.18
2023-11-05T00:26:57.859Z,8.17
2023-11-05T00:27:28.793Z,8.14
2023-11-05T00:27:59.707Z,8.13
2023-11-05T00:28:30.681Z,8.13
2023-11-05T00:29:01.642Z,8.10
2023-11-05T00:29:32.571Z,8.10
2023-11-05T00:30:03.510Z,8.09
2023-11-05T00:30:34.409Z,8.07
2023-11-05T00:31:05.382Z,8.10
2023-11-05T00:31:36.314Z,8.09
2023-11-05T00:32:07.212Z,8.07
2023-11-05T00:32:38.199Z,8.09
2023-11-05T00:33:08.780Z,8.07
2023-11-05T00:33:39.304Z,8.06
2023-11-05T00:34:09.853Z,8.06
2023-11-05T00:34:40.472Z,8.04
2023-11-05T00:35:11.392Z,8.06
2023-11-05T00:35:42.292Z,8.04
2023-11-05T00:36:13.232Z,8.06
2023-11-05T00:36:44.153Z,8.04
2023-11-05T00:37:15.066Z,8.06
2023-11-05T00:37:46.005Z,8.06
2023-11-05T00:38:16.925Z,8.06
2023-11-05T00:38:47.834Z,8.03
2023-11-05T00:39:18.752Z,8.04
2023-11-05T00:39:49.669Z,8.04
2023-11-05T00:40:20.572Z,8.02
2023-11-05T00:40:51.524Z,8.02
2023-11-05T00:41:22.430Z,8.00
2023-11-05T00:41:53.322Z,8.03
2023-11-05T00:42:24.281Z,8.00
2023-11-05T00:42:55.209Z,8.02
2023-11-05T00:43:26.165Z,8.02
2023-11-05T00:43:57.063Z,7.99
2023-11-05T00:44:28.028Z,7.99
2023-11-05T00:44:58.914Z,7.96
2023-11-05T00:45:29.814Z,7.95
2023-11-05T00:46:00.775Z,7.92
2023-11-05T00:46:31.693Z,7.94
2023-11-05T00:47:02.645Z,7.92
2023-11-05T00:47:33.569Z,7.91
2023-11-05T00:48:04.493Z,7.91
2023-11-05T00:48:35.391Z,7.89
2023-11-05T00:49:06.382Z,7.89
2023-11-05T00:49:36.935Z,7.88
2023-11-05T00:50:07.466Z,7.89
2023-11-05T00:50:37.923Z,7.89
2023-11-05T00:51:08.849Z,7.89
2023-11-05T00:51:39.758Z,7.89
2023-11-05T00:52:10.691Z,7.88
2023-11-05T00:52:41.670Z,7.86
2023-11-05T00:53:12.086Z,7.86
2023-11-05T00:53:43.014Z,7.86
2023-11-05T00:54:13.946Z,7.86
2023-11-05T00:54:44.879Z,7.86
2023-11-05T00:55:15.878Z,7.86
2023-11-05T00:55:46.293Z,7.88
2023-11-05T00:56:17.217Z,7.88
2023-11-05T00:56:48.140Z,7.86
2023-11-05T00:57:19.055Z,7.86
2023-11-05T00:57:49.941Z,7.88
2023-11-05T00:58:20.879Z,7.88
2023-11-05T00:58:51.809Z,7.86
2023-11-05T00:59:22.721Z,7.88
2023-11-05T00:59:53.701Z,7.85
2023-11-05T01:00:27.611Z,7.86
2023-11-05T01:00:55.310Z,7.86
2023-11-05T01:01:26.264Z,7.84
2023-11-05T01:01:57.177Z,7.86
2023-11-05T01:02:28.115Z,7.85
2023-11-05T01:02:59.079Z,7.85
2023-11-05T01:03:30.065Z,7.84
2023-11-05T01:04:01.112Z,7.84
2023-11-05T01:04:31.726Z,7.85
2023-11-05T01:05:02.290Z,7.85
2023-11-05T01:05:32.752Z,7.85
2023-11-05T01:06:03.713Z,7.84
2023-11-05T01:06:34.624Z,7.84
2023-11-05T01:07:05.556Z,7.85
2023-11-05T01:07:36.502Z,7.84
2023-11-05T01:08:07.429Z,7.84
2023-11-05T01:08:38.346Z,7.84
2023-11-05T01:09:09.276Z,7.82
2023-11-05T01:09:40.207Z,7.85
2023-11-05T01:10:11.141Z,7.84
2023-11-05T01:10:42.138Z,7.84
2023-11-05T01:11:13.018Z,7.85
2023-11-05T01:11:43.932Z,7.85
2023-11-05T01:12:14.841Z,7.85
2023-11-05T01:12:45.773Z,7.85
2023-11-05T01:13:16.696Z,7.85
2023-11-05T01:13:47.611Z,7.84
2023-11-05T01:14:18.561Z,7.84
2023-11-05T01:14:49.474Z,7.82
2023-11-05T01:15:20.422Z,7.81
2023-11-05T01:15:51.323Z,7.82
2023-11-05T01:16:22.261Z,7.81
2023-11-05T01:16:53.180Z,7.82
2023-11-05T01:17:24.137Z,7.81
2023-11-05T01:17:55.072Z,7.81
2023-11-05T01:18:25.970Z,7.81
2023-11-05T01:18:57.038Z,7.77
2023-11-05T01:19:27.493Z,7.77
2023-11-05T01:19:58.410Z,7.74
2023-11-05T01:20:29.304Z,7.70
2023-11-05T01:21:00.245Z,7.69
2023-11-05T01:21:31.171Z,7.69
2023-11-05T01:22:02.123Z,7.67
2023-11-05T01:22:33.096Z,7.63
2023-11-05T01:23:04.008Z,7.60
2023-11-05T01:23:34.942Z,7.55
2023-11-05T01:24:05.867Z,7.57
2023-11-05T01:24:36.795Z,7.58
2023-11-05T01:25:07.874Z,7.60
2023-11-05T01:25:38.350Z,7.62
2023-11-05T01:26:09.286Z,7.66
2023-11-05T01:26:40.240Z,7.66
2023-11-05T01:27:11.174Z,7.66
2023-11-05T01:27:42.134Z,7.66
2023-11-05T01:28:13.020Z,7.62
2023-11-05T01:28:43.961Z,7.62
2023-11-05T01:29:14.917Z,7.62
2023-11-05T01:29:45.842Z,7.60
2023-11-05T01:30:16.782Z,7.58
2023-11-05T01:30:47.707Z,7.55
2023-11-05T01:31:18.673Z,7.54
2023-11-05T01:31:49.610Z,7.51
2023-11-05T01:32:20.518Z,7.54
2023-11-05T01:32:51.552Z,7.52
2023-11-05T01:33:22.090Z,7.54
2023-11-05T01:33:53.039Z,7.52
2023-11-05T01:34:23.972Z,7.51
2023-11-05T01:34:54.871Z,7.48
2023-11-05T01:35:25.774Z,7.44
2023-11-05T01:35:56.662Z,7.45
2023-11-05T01:36:27.616Z,7.42
2023-11-05T01:36:58.547Z,7.44
2023-11-05T01:37:29.498Z,7.44
2023-11-05T01:38:00.424Z,7.44
2023-11-05T01:38:31.331Z,7.44
2023-11-05T01:39:02.258Z,7.42
2023-11-05T01:39:33.191Z,7.37
2023-11-05T01:40:04.141Z,7.34
2023-11-05T01:40:35.144Z,7.33
2023-11-05T01:41:05.616Z,7.32
2023-11-05T01:41:36.560Z,7.29
2023-11-05T01:42:07.462Z,7.27
2023-11-05T01:42:38.430Z,7.29
2023-11-05T01:43:09.386Z,7.27
2023-11-05T01:43:39.905Z,7.29
2023-11-05T01:44:10.863Z,7.29
2023-11-05T01:44:41.791Z,7.30
2023-11-05T01:45:12.688Z,7.30
2023-11-05T01:45:43.666Z,7.30
2023-11-05T01:46:14.646Z,7.30
2023-11-05T01:46:45.546Z,7.27
2023-11-05T01:47:16.442Z,7.26
2023-11-05T01:47:47.460Z,7.26
2023-11-05T01:48:18.026Z,7.27
2023-11-05T01:48:48.996Z,7.27
2023-11-05T01:49:19.896Z,7.26
2023-11-05T01:49:50.804Z,7.24
2023-11-05T01:50:21.717Z,7.23
2023-11-05T01:50:52.625Z,7.24
2023-11-05T01:51:23.527Z,7.24
2023-11-05T01:51:54.446Z,7.23
2023-11-05T01:52:25.395Z,7.21
2023-11-05T01:52:56.742Z,7.19
2023-11-05T01:53:27.265Z,7.16
2023-11-05T01:53:58.170Z,7.16
2023-11-05T01:54:29.105Z,7.15
2023-11-05T01:55:00.078Z,7.12
2023-11-05T01:55:31.014Z,7.11
2023-11-05T01:56:01.920Z,7.12
2023-11-05T01:56:32.832Z,7.11
2023-11-05T01:57:03.738Z,7.12
2023-11-05T01:57:34.665Z,7.11
2023-11-05T01:58:05.682Z,7.09
2023-11-05T01:58:36.629Z,7.09
2023-11-05T01:59:07.558Z,7.08
2023-11-05T01:59:38.474Z,7.11
2023-11-05T02:00:09.375Z,7.11
2023-11-05T02:00:40.275Z,7.09
2023-11-05T02:01:11.357Z,7.08
2023-11-05T02:01:41.801Z,7.08
2023-11-05T02:02:12.698Z,7.08
2023-11-05T02:02:43.656Z,7.07
2023-11-05T02:03:14.625Z,7.05
2023-11-05T02:03:45.560Z,7.05
2023-11-05T02:04:16.598Z,7.00
2023-11-05T02:04:47.156Z,7.01
2023-11-05T02:05:17.665Z,7.04
2023-11-05T02:05:48.639Z,7.00
2023-11-05T02:06:19.586Z,6.97
2023-11-05T02:06:50.548Z,6.97
2023-11-05T02:07:21.500Z,6.96
2023-11-05T02:07:52.443Z,6.96
2023-11-05T02:08:23.373Z,6.96
2023-11-05T02:08:53.890Z,6.97
2023-11-05T02:09:24.778Z,6.99
2023-11-05T02:09:55.691Z,6.99
2023-11-05T02:10:26.648Z,6.99
2023-11-05T02:10:57.599Z,6.96
2023-11-05T02:11:28.528Z,6.96
2023-11-05T02:11:59.478Z,6.97
2023-11-05T02:12:30.398Z,6.97
2023-11-05T02:13:01.392Z,6.96
2023-11-05T02:13:32.300Z,6.97
2023-11-05T02:14:03.203Z,6.96
2023-11-05T02:14:34.128Z,6.99
2023-11-05T02:15:05.047Z,6.99
2023-11-05T02:15:35.962Z,6.99
2023-11-05T02:16:06.916Z,7.00
2023-11-05T02:16:37.869Z,7.00
2023-11-05T02:17:08.782Z,7.01
2023-11-05T02:17:39.716Z,7.01
2023-11-05T02:18:10.680Z,7.01
2023-11-05T02:18:41.647Z,7.00
2023-11-05T02:19:12.624Z,7.01
2023-11-05T02:19:43.073Z,7.01
2023-11-05T02:20:14.040Z,6.99
2023-11-05T02:20:44.950Z,6.97
2023-11-05T02:21:15.844Z,7.00
2023-11-05T02:21:46.758Z,7.04
2023-11-05T02:22:17.720Z,7.01
2023-11-05T02:22:48.626Z,7.05
2023-11-05T02:23:19.524Z,7.04
2023-11-05T02:23:50.451Z,7.07
2023-11-05T02:24:21.441Z,7.05
2023-11-05T02:24:51.899Z,7.07
2023-11-05T02:25:22.886Z,7.07
2023-11-05T02:25:53.786Z,7.04
2023-11-05T02:26:24.712Z,7.04
2023-11-05T02:26:55.621Z,7.05
2023-11-05T02:27:26.537Z,7.04
2023-11-05T02:27:57.439Z,7.01
2023-11-05T02:28:28.442Z,7.04
2023-11-05T02:28:59.343Z,7.07
2023-11-05T02:29:30.239Z,7.05
2023-11-05T02:30:01.154Z,7.04
2023-11-05T02:30:32.100Z,7.05
2023-11-05T02:31:03.036Z,7.04
2023-11-05T02:31:34.054Z,7.04
2023-11-05T02:32:04.493Z,7.04
2023-11-05T02:32:35.433Z,7.04
2023-11-05T02:33:06.418Z,7.05
2023-11-05T02:33:36.851Z,7.04
2023-11-05T02:34:07.884Z,7.04
2023-11-05T02:34:38.390Z,7.05
2023-11-05T02:35:08.972Z,7.04
2023-11-05T02:35:39.417Z,7.04
2023-11-05T02:36:10.342Z,7.05
2023-11-05T02:36:41.300Z,7.04
2023-11-05T02:37:12.241Z,7.01
2023-11-05T02:37:43.186Z,7.04
2023-11-05T02:38:14.090Z,7.01
2023-11-05T02:38:45.019Z,7.01
2023-11-05T02:39:15.940Z,7.00
2023-11-05T02:39:46.868Z,7.00
2023-11-05T02:40:17.797Z,7.00
2023-11-05T02:40:48.725Z,7.01
2023-11-05T02:41:19.638Z,7.00
2023-11-05T02:41:50.567Z,6.99
2023-11-05T02:42:21.530Z,7.00
2023-11-05T02:42:52.438Z,7.00
2023-11-05T02:43:23.380Z,6.99
2023-11-05T02:43:54.282Z,7.00
2023-11-05T02:44:25.176Z,7.00
2023-11-05T02:44:56.117Z,7.00
2023-11-05T02:45:27.045Z,7.00
2023-11-05T02:45:58.013Z,6.99
2023-11-05T02:46:28.964Z,6.99
2023-11-05T02:46:59.909Z,6.97
2023-11-05T02:47:30.845Z,6.97
2023-11-05T02:48:01.853Z,6.96
2023-11-05T02:48:32.417Z,6.96
2023-11-05T02:49:02.957Z,6.96
2023-11-05T02:49:33.404Z,6.94
2023-11-05T02:50:04.304Z,6.93
2023-11-05T02:50:35.210Z,6.94
2023-11-05T02:51:06.124Z,6.93
2023-11-05T02:51:37.029Z,6.91
2023-11-05T02:52:07.988Z,6.90
2023-11-05T02:52:38.934Z,6.87
2023-11-05T02:53:09.877Z,6.89
2023-11-05T02:53:40.396Z,6.89
2023-11-05T02:54:11.311Z,6.87
2023-11-05T02:54:42.213Z,6.83
2023-11-05T02:55:13.175Z,6.82
2023-11-05T02:55:44.107Z,6.79
2023-11-05T02:56:15.006Z,6.78
2023-11-05T02:56:45.904Z,6.76
2023-11-05T02:57:16.841Z,6.76
2023-11-05T02:57:47.748Z,6.75
2023-11-05T02:58:18.675Z,6.73
2023-11-05T02:58:49.638Z,6.73
2023-11-05T02:59:20.566Z,6.71
2023-11-05T02:59:51.528Z,6.71
2023-11-05T03:00:22.419Z,6.71
2023-11-05T03:00:53.361Z,6.73
2023-11-05T03:01:24.385Z,6.72
2023-11-05T03:01:54.801Z,6.72
2023-11-05T03:02:25.767Z,6.71
2023-11-05T03:02:56.746Z,6.72
2023-11-05T03:03:27.286Z,6.69
2023-11-05T03:03:57.699Z,6.71
2023-11-05T03:04:28.681Z,6.68
2023-11-05T03:04:59.288Z,6.68
2023-11-05T03:05:29.804Z,6.68
2023-11-05T03:06:00.699Z,6.65
2023-11-05T03:06:31.310Z,6.63
2023-11-05T03:07:02.291Z,6.61
2023-11-05T03:07:32.746Z,6.58
2023-11-05T03:08:03.679Z,6.61
2023-11-05T03:08:34.623Z,6.57
2023-11-05T03:09:05.567Z,6.53
2023-11-05T03:09:36.473Z,6.53
2023-11-05T03:10:07.418Z,6.48
2023-11-05T03:10:38.373Z,6.45
2023-11-05T03:11:09.294Z,6.40
2023-11-05T03:11:40.291Z,6.38
2023-11-05T03:12:11.190Z,6.36
2023-11-05T03:12:42.117Z,6.38
2023-11-05T03:13:13.066Z,6.38
2023-11-05T03:13:43.963Z,6.38
2023-11-05T03:14:14.920Z,6.38
2023-11-05T03:14:45.865Z,6.36
2023-11-05T03:15:16.776Z,6.33
2023-11-05T03:15:47.699Z,6.32
2023-11-05T03:16:18.625Z,6.30
2023-11-05T03:16:49.117Z,6.27
2023-11-05T03:17:20.040Z,6.25
2023-11-05T03:17:51.066Z,6.24
2023-11-05T03:18:21.691Z,6.25
2023-11-05T03:18:52.166Z,6.24
2023-11-05T03:19:22.692Z,6.20
2023-11-05T03:19:53.632Z,6.21
2023-11-05T03:20:24.510Z,6.24
2023-11-05T03:20:55.476Z,6.27
2023-11-05T03:21:26.387Z,6.27
2023-11-05T03:21:57.307Z,6.28
2023-11-05T03:22:28.221Z,6.30
2023-11-05T03:22:59.145Z,6.30
2023-11-05T03:23:30.029Z,6.28
2023-11-05T03:24:00.964Z,6.30
2023-11-05T03:24:31.863Z,6.27
2023-11-05T03:25:02.836Z,6.28
2023-11-05T03:25:33.755Z,6.30
2023-11-05T03:26:04.686Z,6.28
2023-11-05T03:26:35.582Z,6.28
2023-11-05T03:27:06.488Z,6.25
2023-11-05T03:27:37.387Z,6.24
2023-11-05T03:28:08.332Z,6.21
2023-11-05T03:28:39.295Z,6.20
2023-11-05T03:29:10.200Z,6.17
2023-11-05T03:29:41.111Z,6.16
2023-11-05T03:30:12.000Z,6.16
2023-11-05T03:30:42.925Z,6.14
2023-11-05T03:31:13.844Z,6.14
2023-11-05T03:31:44.740Z,6.11
2023-11-05T03:32:15.663Z,6.10
2023-11-05T03:32:46.625Z,6.08
2023-11-05T03:33:17.611Z,6.08
2023-11-05T03:33:48.571Z,6.08
2023-11-05T03:34:19.546Z,6.06
2023-11-05T03:34:50.461Z,6.08
2023-11-05T03:35:21.360Z,6.10
2023-11-05T03:35:52.241Z,6.06
2023-11-05T03:36:23.156Z,6.05
2023-11-05T03:36:54.048Z,6.02
2023-11-05T03:37:24.998Z,6.01
2023-11-05T03:37:55.902Z,6.02
2023-11-05T03:38:26.848Z,6.03
2023-11-05T03:38:57.757Z,6.03
2023-11-05T03:39:28.680Z,6.03
2023-11-05T03:39:59.595Z,6.02
2023-11-05T03:40:30.549Z,6.02
2023-11-05T03:41:01.457Z,5.98
2023-11-05T03:41:32.358Z,5.99
2023-11-05T03:42:03.287Z,6.01
2023-11-05T03:42:33.833Z,6.01
2023-11-05T03:43:04.788Z,6.01
2023-11-05T03:43:35.751Z,6.02
2023-11-05T03:44:06.696Z,6.02
2023-11-05T03:44:37.659Z,6.02
2023-11-05T03:45:08.092Z,6.02
2023-11-05T03:45:38.989Z,6.02
2023-11-05T03:46:09.926Z,6.02
2023-11-05T03:46:40.937Z,6.02
2023-11-05T03:47:12.772Z,6.03
2023-11-05T03:47:42.287Z,6.02
2023-11-05T03:48:12.801Z,6.03
2023-11-05T03:48:43.283Z,6.03
2023-11-05T03:49:14.206Z,6.05
2023-11-05T03:49:45.122Z,6.03
2023-11-05T03:50:16.006Z,6.06
2023-11-05T03:50:46.910Z,6.06
2023-11-05T03:51:17.817Z,6.08
2023-11-05T03:51:48.737Z,6.05
2023-11-05T03:52:19.668Z,6.03
2023-11-05T03:52:50.551Z,6.03
2023-11-05T03:53:21.449Z,6.03
2023-11-05T03:53:52.367Z,6.02
2023-11-05T03:54:23.284Z,6.02
2023-11-05T03:54:54.227Z,6.02
2023-11-05T03:55:25.241Z,5.99
2023-11-05T03:55:56.272Z,5.98
2023-11-05T03:56:26.782Z,5.96
2023-11-05T03:56:57.717Z,5.95
2023-11-05T03:57:28.610Z,5.96
2023-11-05T03:57:59.509Z,5.93
2023-11-05T03:58:30.441Z,5.92
2023-11-05T03:59:01.353Z,5.88
2023-11-05T03:59:32.253Z,5.92
2023-11-05T04:00:03.142Z,5.92
2023-11-05T04:00:34.109Z,5.88
2023-11-05T04:01:05.170Z,5.88
2023-11-05T04:01:35.656Z,5.87
2023-11-05T04:02:06.575Z,5.87
2023-11-05T04:02:37.578Z,5.87
2023-11-05T04:03:08.060Z,5.87
2023-11-05T04:03:38.672Z,5.87
2023-11-05T04:04:09.223Z,5.87
2023-11-05T04:04:39.693Z,5.85
2023-11-05T04:05:10.673Z,5.85
2023-11-05T04:05:41.110Z,5.87
2023-11-05T04:06:12.040Z,5.88
2023-11-05T04:06:42.931Z,5.90
2023-11-05T04:07:13.881Z,5.92
2023-11-05T04:07:44.871Z,5.93
2023-11-05T04:08:15.326Z,5.93
2023-11-05T04:08:46.223Z,5.93
2023-11-05T04:09:17.136Z,5.93
2023-11-05T04:09:48.053Z,5.92
2023-11-05T04:10:18.974Z,5.95
2023-11-05T04:10:49.982Z,5.95
2023-11-05T04:11:20.953Z,5.96
2023-11-05T04:11:51.872Z,5.98
2023-11-05T04:12:22.798Z,5.99
2023-11-05T04:12:53.706Z,6.01
2023-11-05T04:13:24.677Z,6.01
2023-11-05T04:13:55.610Z,6.02
2023-11-05T04:14:26.501Z,6.03
2023-11-05T04:14:57.407Z,6.01
2023-11-05T04:15:28.325Z,6.02
2023-11-05T04:15:59.242Z,6.03
2023-11-05T04:16:30.203Z,6.05
2023-11-05T04:17:01.126Z,6.06
2023-11-05T04:17:32.067Z,6.10
2023-11-05T04:18:03.036Z,6.06
2023-11-05T04:18:33.707Z,6.03
2023-11-05T04:19:04.632Z,6.03
2023-11-05T04:19:35.649Z,6.05
2023-11-05T04:20:06.537Z,6.03
2023-11-05T04:20:37.568Z,6.02
2023-11-05T04:21:08.144Z,6.03
2023-11-05T04:21:39.042Z,6.03
2023-11-05T04:22:10.016Z,6.03
2023-11-05T04:22:41.013Z,6.03
2023-11-05T04:23:11.542Z,6.01
2023-11-05T04:23:42.478Z,6.01
2023-11-05T04:24:13.382Z,5.99
2023-11-05T04:24:44.295Z,5.98
2023-11-05T04:25:15.210Z,5.96
2023-11-05T04:25:46.264Z,5.96
2023-11-05T04:26:17.185Z,5.96
2023-11-05T04:26:48.117Z,5.93
2023-11-05T04:27:19.015Z,5.93
2023-11-05T04:27:49.937Z,5.93
2023-11-05T04:28:20.889Z,5.90
2023-11-05T04:28:51.813Z,5.92
2023-11-05T04:29:22.734Z,5.92
2023-11-05T04:29:53.665Z,5.92
2023-11-05T04:30:24.555Z,5.92
2023-11-05T04:30:55.462Z,5.92
2023-11-05T04:31:26.482Z,5.93
2023-11-05T04:31:56.971Z,5.93
2023-11-05T04:32:28.026Z,5.90
2023-11-05T04:32:58.589Z,5.92
2023-11-05T04:33:29.637Z,5.93
2023-11-05T04:34:00.108Z,5.95
2023-11-05T04:34:31.127Z,5.95
2023-11-05T04:35:01.565Z,5.95
2023-11-05T04:35:32.490Z,5.96
2023-11-05T04:36:03.454Z,5.95
2023-11-05T04:36:34.385Z,5.96
2023-11-05T04:37:05.346Z,5.98
2023-11-05T04:37:36.319Z,5.98
2023-11-05T04:38:07.242Z,5.98
2023-11-05T04:38:38.159Z,5.98
2023-11-05T04:39:09.102Z,5.98
2023-11-05T04:39:40.002Z,5.96
2023-11-05T04:40:10.985Z,5.98
2023-11-05T04:40:41.923Z,5.98
2023-11-05T04:41:12.881Z,5.96
2023-11-05T04:41:43.793Z,5.98
2023-11-05T04:42:14.732Z,5.98
2023-11-05T04:42:45.648Z,5.99
2023-11-05T04:43:16.583Z,5.95
2023-11-05T04:43:47.498Z,5.98
2023-11-05T04:44:18.405Z,5.98
2023-11-05T04:44:49.361Z,5.98
2023-11-05T04:45:20.272Z,5.99
2023-11-05T04:45:51.199Z,5.96
2023-11-05T04:46:22.140Z,5.99
2023-11-05T04:46:53.076Z,6.01
2023-11-05T04:47:23.978Z,6.01
2023-11-05T04:47:54.942Z,6.01
2023-11-05T04:48:25.963Z,6.01
2023-11-05T04:48:56.405Z,6.01
2023-11-05T04:49:27.338Z,6.01
2023-11-05T04:49:58.253Z,5.98
2023-11-05T04:50:29.183Z,5.99
2023-11-05T04:51:00.103Z,6.01
2023-11-05T04:51:31.023Z,5.99
2023-11-05T04:52:01.941Z,6.01
2023-11-05T04:52:32.911Z,6.01
2023-11-05T04:53:03.814Z,5.99
2023-11-05T04:53:34.726Z,6.01
2023-11-05T04:54:05.659Z,6.03
2023-11-05T04:54:36.564Z,6.02
2023-11-05T04:55:07.486Z,6.03
2023-11-05T04:55:38.452Z,6.03
2023-11-05T04:56:09.363Z,6.01
2023-11-05T04:56:40.288Z,6.02
2023-11-05T04:57:11.184Z,6.03
2023-11-05T04:57:42.106Z,6.03
2023-11-05T04:58:13.046Z,6.06
2023-11-05T04:58:44.029Z,6.06
2023-11-05T04:59:14.942Z,6.10
2023-11-05T04:59:45.929Z,6.08
2023-11-05T05:00:16.371Z,6.11
2023-11-05T05:00:47.275Z,6.13
2023-11-05T05:01:18.208Z,6.14
2023-11-05T05:01:49.185Z,6.14
2023-11-05T05:02:20.113Z,6.17
2023-11-05T05:02:51.179Z,6.17
2023-11-05T05:03:21.738Z,6.20
2023-11-05T05:03:52.314Z,6.21
2023-11-05T05:04:22.802Z,6.24
2023-11-05T05:04:53.385Z,6.24
2023-11-05T05:05:23.899Z,6.24
2023-11-05T05:05:54.506Z,6.27
2023-11-05T05:06:24.969Z,6.25
2023-11-05T05:06:55.936Z,6.27
2023-11-05T05:07:26.902Z,6.28
2023-11-05T05:08:01.009Z,6.30
2023-11-05T05:08:28.726Z,6.30
2023-11-05T05:08:59.648Z,6.28
2023-11-05T05:09:30.549Z,6.28
2023-11-05T05:10:01.456Z,6.32
2023-11-05T05:10:32.474Z,6.32
2023-11-05T05:11:02.964Z,6.33
2023-11-05T05:11:34.103Z,6.33
2023-11-05T05:12:04.499Z,6.33
2023-11-05T05:12:35.427Z,6.36
2023-11-05T05:13:06.365Z,6.35
2023-11-05T05:13:37.329Z,6.35
2023-11-05T05:14:08.257Z,6.36
2023-11-05T05:14:39.179Z,6.38
2023-11-05T05:15:10.123Z,6.39
2023-11-05T05:15:41.076Z,6.39
2023-11-05T05:16:11.975Z,6.39
2023-11-05T05:16:42.951Z,6.39
2023-11-05T05:17:13.848Z,6.42
2023-11-05T05:17:44.812Z,6.43
2023-11-05T05:18:15.360Z,6.45
2023-11-05T05:18:45.821Z,6.43
2023-11-05T05:19:16.312Z,6.45
2023-11-05T05:19:47.270Z,6.45
2023-11-05T05:20:18.180Z,6.45
2023-11-05T05:20:49.083Z,6.46
2023-11-05T05:21:20.001Z,6.46
2023-11-05T05:21:50.903Z,6.43
2023-11-05T05:22:21.854Z,6.45
2023-11-05T05:22:52.736Z,6.45
2023-11-05T05:23:23.639Z,6.46
2023-11-05T05:23:54.568Z,6.46
2023-11-05T05:24:25.485Z,6.46
2023-11-05T05:24:56.402Z,6.50
2023-11-05T05:25:27.369Z,6.50
2023-11-05T05:25:58.272Z,6.50
2023-11-05T05:26:29.212Z,6.48
2023-11-05T05:27:00.160Z,6.50
2023-11-05T05:27:31.068Z,6.53
2023-11-05T05:28:01.965Z,6.53
2023-11-05T05:28:33.865Z,6.53
2023-11-05T05:29:03.792Z,6.53
2023-11-05T05:29:34.718Z,6.51
2023-11-05T05:30:05.618Z,6.54
2023-11-05T05:30:36.528Z,6.53
2023-11-05T05:31:07.462Z,6.53
2023-11-05T05:31:38.388Z,6.51
2023-11-05T05:32:09.299Z,6.50
2023-11-05T05:32:40.282Z,6.50
2023-11-05T05:33:11.277Z,6.51
2023-11-05T05:33:41.714Z,6.48
2023-11-05T05:34:12.656Z,6.50
2023-11-05T05:34:43.594Z,6.51
2023-11-05T05:35:14.492Z,6.51
2023-11-05T05:35:45.437Z,6.50
2023-11-05T05:36:16.368Z,6.51
2023-11-05T05:36:47.347Z,6.54
2023-11-05T05:37:18.248Z,6.53
2023-11-05T05:37:49.201Z,6.53
2023-11-05T05:38:20.094Z,6.54
2023-11-05T05:38:51.027Z,6.53
2023-11-05T05:39:21.963Z,6.53
2023-11-05T05:39:52.931Z,6.51
2023-11-05T05:40:23.879Z,6.53
2023-11-05T05:40:54.809Z,6.53
2023-11-05T05:41:25.737Z,6.53
2023-11-05T05:41:58.459Z,6.54
2023-11-05T05:42:27.339Z,6.55
2023-11-05T05:42:58.254Z,6.55
2023-11-05T05:43:29.204Z,6.55
2023-11-05T05:44:00.129Z,6.58
2023-11-05T05:44:30.963Z,6.60
2023-11-05T05:45:01.915Z,6.60
2023-11-05T05:45:32.815Z,6.61
2023-11-05T05:46:03.750Z,6.58
2023-11-05T05:46:34.690Z,6.60
2023-11-05T05:47:05.573Z,6.61
2023-11-05T05:47:36.434Z,6.61
2023-11-05T05:48:07.404Z,6.61
2023-11-05T05:48:37.784Z,6.61
2023-11-05T05:49:08.672Z,6.64
2023-11-05T05:49:39.656Z,6.64
2023-11-05T05:50:10.587Z,6.64
2023-11-05T05:50:41.490Z,6.65
2023-11-05T05:51:12.410Z,6.65
2023-11-05T05:51:43.303Z,6.69
2023-11-05T05:52:14.206Z,6.68
2023-11-05T05:52:45.099Z,6.65
2023-11-05T05:53:15.998Z,6.65
2023-11-05T05:53:46.837Z,6.64
2023-11-05T05:54:17.675Z,6.65
2023-11-05T05:54:48.550Z,6.64
2023-11-05T05:55:19.428Z,6.63
2023-11-05T05:55:50.309Z,6.61
2023-11-05T05:56:21.145Z,6.61
2023-11-05T05:56:52.008Z,6.63
2023-11-05T05:57:22.850Z,6.60
2023-11-05T05:57:53.716Z,6.61
2023-11-05T05:58:24.604Z,6.60
2023-11-05T05:58:55.456Z,6.61
2023-11-05T05:59:26.286Z,6.58
2023-11-05T05:59:57.182Z,6.57
2023-11-05T06:00:28.035Z,6.54
2023-11-05T06:00:58.910Z,6.55
2023-11-05T06:01:29.836Z,6.54
2023-11-05T06:02:00.866Z,6.53
2023-11-05T06:02:31.290Z,6.53
2023-11-05T06:03:02.172Z,6.51
2023-11-05T06:03:33.063Z,6.50
2023-11-05T06:04:03.946Z,6.51
2023-11-05T06:04:34.889Z,6.48
2023-11-05T06:05:05.729Z,6.46
2023-11-05T06:05:36.694Z,6.43
2023-11-05T06:06:07.576Z,6.40
2023-11-05T06:06:38.450Z,6.36
2023-11-05T06:07:09.431Z,6.33
2023-11-05T06:07:39.928Z,6.33
2023-11-05T06:08:10.801Z,6.35
2023-11-05T06:08:41.679Z,6.36
2023-11-05T06:09:12.506Z,6.35
2023-11-05T06:09:43.365Z,6.35
2023-11-05T06:10:14.271Z,6.32
2023-11-05T06:10:45.183Z,6.30
2023-11-05T06:11:16.076Z,6.25
2023-11-05T06:11:46.915Z,6.24
2023-11-05T06:12:17.788Z,6.21
2023-11-05T06:12:48.710Z,6.20
2023-11-05T06:13:19.578Z,6.19
2023-11-05T06:13:50.502Z,6.20
2023-11-05T06:14:29.199Z,6.19
2023-11-05T06:14:56.894Z,6.20
2023-11-05T06:15:22.922Z,6.20
2023-11-05T06:15:53.823Z,6.19
2023-11-05T06:16:24.765Z,6.17
2023-11-05T06:16:55.612Z,6.16
2023-11-05T06:17:26.520Z,6.16
2023-11-05T06:17:57.571Z,6.16
2023-11-05T06:18:28.031Z,6.16
2023-11-05T06:18:58.945Z,6.13
2023-11-05T06:19:29.840Z,6.11
2023-11-05T06:20:00.696Z,6.11
2023-11-05T06:20:31.576Z,6.11
2023-11-05T06:21:02.420Z,6.10
2023-11-05T06:21:33.306Z,6.08
2023-11-05T06:22:04.185Z,6.08
2023-11-05T06:22:38.713Z,6.05
2023-11-05T06:23:05.703Z,6.05
2023-11-05T06:23:36.559Z,6.05
2023-11-05T06:24:07.469Z,6.05
2023-11-05T06:24:38.324Z,6.05
2023-11-05T06:25:09.291Z,6.06
2023-11-05T06:25:40.406Z,6.05
2023-11-05T06:26:10.776Z,6.03
2023-11-05T06:26:41.625Z,6.02
2023-11-05T06:27:12.511Z,5.99
2023-11-05T06:27:43.485Z,6.01
2023-11-05T06:28:14.399Z,6.01
2023-11-05T06:28:45.293Z,5.99
2023-11-05T06:29:16.181Z,6.01
2023-11-05T06:29:47.039Z,6.01
2023-11-05T06:30:17.886Z,5.99
2023-11-05T06:30:48.741Z,5.99
2023-11-05T06:31:19.617Z,6.01
2023-11-05T06:31:50.471Z,6.01
2023-11-05T06:32:21.328Z,6.03
2023-11-05T06:32:52.339Z,6.05
2023-11-05T06:33:23.232Z,6.06
2023-11-05T06:33:54.128Z,6.05
2023-11-05T06:34:25.024Z,6.06
2023-11-05T06:34:58.088Z,6.06
2023-11-05T06:35:26.718Z,6.06
2023-11-05T06:35:57.582Z,6.05
2023-11-05T06:36:28.458Z,6.06
2023-11-05T06:36:59.306Z,6.05
2023-11-05T06:37:30.196Z,6.05
2023-11-05T06:38:01.037Z,6.05
2023-11-05T06:38:31.884Z,6.05
2023-11-05T06:39:02.748Z,6.03
2023-11-05T06:39:33.611Z,6.03
2023-11-05T06:40:04.473Z,6.06
2023-11-05T06:40:35.335Z,6.06
2023-11-05T06:41:06.198Z,6.05
2023-11-05T06:41:37.044Z,6.06
2023-11-05T06:42:07.896Z,6.03
2023-11-05T06:42:38.398Z,6.05
2023-11-05T06:43:09.284Z,6.05
2023-11-05T06:43:40.173Z,6.06
2023-11-05T06:44:11.050Z,6.06
2023-11-05T06:44:41.885Z,6.08
2023-11-05T06:45:12.847Z,6.06
2023-11-05T06:45:43.718Z,6.05
2023-11-05T06:46:14.611Z,6.06
2023-11-05T06:46:45.491Z,6.06
2023-11-05T06:47:16.348Z,6.05
2023-11-05T06:47:47.277Z,6.06
2023-11-05T06:48:18.241Z,6.08
2023-11-05T06:48:49.186Z,6.06
2023-11-05T06:49:20.064Z,6.10
2023-11-05T06:49:50.908Z,6.10
2023-11-05T06:50:21.843Z,6.10
2023-11-05T06:50:52.749Z,6.11